Time;durP1;ratioP1;P1;durP2;ratioP2;P2;SDS_P1;SDS_P2;PMS_P1;PMS_P2;Temp;Humidity;BMP_temperature;BMP_pressure;BME280_temperature;BME280_humidity;BME280_pressure;Samples;Min_cycle;Max_cycle;Signal;HPM_P1;HPM_P2
2023/07/01 06:07:23;;;;;;;4.80;4.40;;;;;;;24.22;49.38;99390.92;105868;1254;61078;-75
2023/07/01 06:09:50;;;;;;;4.70;4.10;;;;;;;24.32;49.41;99386.96;105794;1252;60628;-77
2023/07/01 06:12:17;;;;;;;6.30;4.30;;;;;;;24.39;49.22;99385.13;105887;1256;65009;-75
2023/07/01 06:14:44;;;;;;;6.50;4.70;;;;;;;24.42;48.94;99389.56;105796;1266;60374;-75
2023/07/01 06:17:10;;;;;;;4.70;4.30;;;;;;;24.51;48.94;99392.30;106138;1256;62869;-76
2023/07/01 06:19:37;;;;;;;5.00;4.50;;;;;;;24.64;48.84;99392.85;105860;1258;60571;-80
2023/07/01 06:22:04;;;;;;;5.70;4.30;;;;;;;24.71;48.84;99398.77;105881;1257;60473;-77
2023/07/01 06:24:31;;;;;;;4.40;4.00;;;;;;;24.82;48.50;99396.64;105767;1260;65266;-75
2023/07/01 06:26:58;;;;;;;5.30;4.20;;;;;;;24.91;48.14;99391.11;105695;1256;60635;-74
2023/07/01 06:29:26;;;;;;;5.30;4.50;;;;;;;25.01;48.11;99390.66;105856;1257;63849;-74
2023/07/01 06:36:53;;;;;;;4.90;4.20;;;;;;;25.24;47.34;99392.97;105713;1256;60354;-75
2023/07/01 06:39:20;;;;;;;6.70;4.80;;;;;;;25.29;47.49;99393.81;105885;1254;65146;-75
2023/07/01 06:41:47;;;;;;;5.10;4.70;;;;;;;25.38;47.26;99391.84;105816;1257;60558;-74
2023/07/01 06:44:14;;;;;;;4.90;4.40;;;;;;;25.47;46.89;99390.10;108985;1253;62827;-76
2023/07/01 06:46:41;;;;;;;5.00;4.50;;;;;;;25.56;46.60;99391.88;109187;1258;58368;-74
2023/07/01 06:49:07;;;;;;;6.40;4.30;;;;;;;25.63;46.34;99393.09;109099;1254;58391;-76
2023/07/01 06:51:34;;;;;;;5.50;4.40;;;;;;;25.72;46.32;99391.58;109245;1253;63918;-75
2023/07/01 06:54:01;;;;;;;6.90;4.10;;;;;;;25.80;45.67;99396.38;109224;1254;58560;-75
2023/07/01 06:56:28;;;;;;;5.40;4.20;;;;;;;25.87;45.71;99394.39;109123;1254;65831;-74
2023/07/01 06:58:55;;;;;;;4.50;4.10;;;;;;;25.98;46.15;99397.65;109110;1254;58416;-74
2023/07/01 07:01:23;;;;;;;6.70;4.40;;;;;;;26.12;45.65;99401.17;109120;1253;59928;-75
2023/07/01 07:03:50;;;;;;;4.90;4.30;;;;;;;26.23;44.88;99405.31;108843;1252;200223;-73
2023/07/01 07:06:17;;;;;;;5.50;4.40;;;;;;;26.31;44.32;99400.98;109200;1254;58457;-78
2023/07/01 07:08:44;;;;;;;4.50;4.10;;;;;;;26.37;44.11;99399.26;109063;1254;64111;-75
2023/07/01 07:11:11;;;;;;;6.40;4.40;;;;;;;26.43;44.46;99397.83;109311;1256;58263;-73
2023/07/01 07:13:38;;;;;;;6.30;3.90;;;;;;;26.50;44.56;99394.46;109088;1257;58509;-73
2023/07/01 07:16:05;;;;;;;4.30;3.90;;;;;;;26.59;44.23;99392.30;109173;1254;64159;-73
2023/07/01 07:18:32;;;;;;;8.00;4.20;;;;;;;26.67;44.62;99392.58;109134;1254;58413;-76
2023/07/01 07:20:59;;;;;;;5.10;3.90;;;;;;;26.78;44.48;99396.85;109325;1253;62637;-73
2023/07/01 07:23:26;;;;;;;4.70;4.20;;;;;;;26.91;44.21;99393.27;109175;1259;58795;-74
2023/07/01 07:25:52;;;;;;;4.90;4.10;;;;;;;27.01;43.64;99394.59;109375;1254;58285;-73
2023/07/01 07:28:19;;;;;;;4.60;4.20;;;;;;;27.07;43.39;99396.48;109204;1253;65096;-74
2023/07/01 07:30:46;;;;;;;4.90;4.20;;;;;;;27.17;43.46;99393.39;109377;1254;58691;-74
2023/07/01 07:33:13;;;;;;;5.20;3.80;;;;;;;27.29;43.60;99393.97;109387;1254;62678;-74
2023/07/01 07:35:40;;;;;;;9.00;4.00;;;;;;;27.40;43.36;99395.22;109197;1254;58223;-75
2023/07/01 07:38:07;;;;;;;5.70;4.00;;;;;;;27.52;43.40;99394.95;109148;1253;58141;-73
2023/07/01 07:40:33;;;;;;;4.60;3.90;;;;;;;27.62;42.93;99390.83;109360;1252;64913;-74
2023/07/01 07:43:08;;;;;;;5.00;4.00;;;;;;;27.71;42.56;99389.30;106470;1260;60348;-73
2023/07/01 07:45:34;;;;;;;4.50;4.00;;;;;;;27.76;41.70;99390.05;106342;1257;64062;-74
2023/07/01 07:48:01;;;;;;;4.50;4.10;;;;;;;27.83;41.78;99394.06;107697;1256;60281;-74
2023/07/01 07:50:28;;;;;;;4.10;3.70;;;;;;;27.88;41.95;99390.52;107235;1254;60438;-74
2023/07/01 07:52:55;;;;;;;6.50;4.10;;;;;;;27.91;41.68;99385.40;108141;1253;63728;-75
2023/07/01 07:55:22;;;;;;;4.40;3.80;;;;;;;28.00;41.59;99378.59;107503;1256;60462;-74
2023/07/01 07:57:50;;;;;;;3.90;3.60;;;;;;;28.08;40.87;99385.10;106019;1254;64128;-74
2023/07/01 08:00:17;;;;;;;4.30;3.90;;;;;;;28.15;40.50;99385.10;106028;1257;60312;-75
2023/07/01 08:02:47;;;;;;;4.30;3.90;;;;;;;28.22;39.99;99381.83;106077;1254;60513;-74
2023/07/01 08:05:17;;;;;;;4.40;3.60;;;;;;;28.30;39.89;99382.55;106223;1252;65109;-73
2023/07/01 08:07:46;;;;;;;4.10;3.70;;;;;;;28.40;40.03;99378.50;106121;1254;60462;-75
2023/07/01 08:10:13;;;;;;;4.20;3.70;;;;;;;28.48;39.87;99381.38;106430;1256;63806;-74
2023/07/01 08:12:40;;;;;;;3.90;3.50;;;;;;;28.55;39.28;99380.16;106045;1257;60447;-74
2023/07/01 08:15:08;;;;;;;4.10;3.50;;;;;;;28.62;39.20;99382.48;105920;1254;60335;-73
2023/07/01 08:17:36;;;;;;;5.10;3.90;;;;;;;28.69;38.74;99382.63;105838;1254;65931;-74
2023/07/01 08:20:04;;;;;;;4.00;3.60;;;;;;;28.75;38.46;99383.84;106103;1256;60543;-72
2023/07/01 08:22:31;;;;;;;3.60;3.30;;;;;;;28.76;38.23;99385.42;106044;1254;64845;-75
2023/07/01 08:24:58;;;;;;;4.10;3.70;;;;;;;28.76;37.98;99381.41;106259;1257;60425;-74
2023/07/01 08:27:25;;;;;;;4.60;3.50;;;;;;;28.83;38.00;99376.71;106180;1254;60336;-73
2023/07/01 08:29:51;;;;;;;4.70;3.60;;;;;;;28.96;38.10;99373.09;105936;1255;65780;-74
2023/07/01 08:32:18;;;;;;;4.10;3.70;;;;;;;29.10;38.14;99375.03;106093;1257;60727;-74
2023/07/01 08:34:45;;;;;;;4.50;3.30;;;;;;;29.24;37.73;99376.43;106079;1258;64072;-74
2023/07/01 08:37:12;;;;;;;7.30;3.50;;;;;;;29.30;36.89;99381.40;105855;1259;60565;-74
2023/07/01 08:39:38;;;;;;;4.60;3.50;;;;;;;29.34;36.66;99374.95;105929;1254;60425;-76
2023/07/01 08:42:06;;;;;;;4.10;3.70;;;;;;;29.39;37.37;99381.69;105816;1257;65079;-74
2023/07/01 08:44:33;;;;;;;4.90;3.60;;;;;;;29.43;37.24;99379.06;105942;1260;60438;-74
2023/07/01 08:47:00;;;;;;;4.30;3.40;;;;;;;29.43;37.11;99379.69;106025;1254;63862;-74
2023/07/01 08:49:27;;;;;;;4.00;3.40;;;;;;;29.47;37.20;99379.00;105818;1254;60379;-72
2023/07/01 08:52:04;;;;;;;4.50;3.60;;;;;;;29.56;36.70;99374.35;106178;1254;60533;-73
2023/07/01 08:54:33;;;;;;;4.40;3.40;;;;;;;29.67;36.60;99372.02;106128;1254;64065;-72
2023/07/01 08:57:01;;;;;;;3.80;3.20;;;;;;;29.77;36.72;99373.85;106263;1259;59902;-74
2023/07/01 08:59:28;;;;;;;5.40;3.30;;;;;;;29.86;36.16;99373.21;106100;1257;64026;-74
2023/07/01 09:01:56;;;;;;;5.30;3.30;;;;;;;29.96;35.97;99371.30;106024;1254;60473;-74
2023/07/01 09:04:22;;;;;;;4.80;3.70;;;;;;;30.05;37.00;99375.71;105879;1256;59243;-73
2023/07/01 09:06:50;;;;;;;4.20;3.60;;;;;;;30.15;37.93;99384.49;105840;1255;65098;-74
2023/07/01 09:09:17;;;;;;;5.00;3.50;;;;;;;30.25;38.53;99383.28;105840;1260;60476;-74
2023/07/01 09:11:44;;;;;;;9.10;3.30;;;;;;;30.37;37.32;99376.72;106065;1254;66359;-75
2023/07/01 09:14:11;;;;;;;4.40;3.30;;;;;;;30.41;35.63;99373.13;106026;1257;60407;-73
2023/07/01 09:16:38;;;;;;;4.50;3.40;;;;;;;30.41;36.67;99367.56;105824;1254;60440;-73
2023/07/01 09:19:17;;;;;;;7.60;3.60;;;;;;;30.50;37.73;99371.45;106007;1254;65194;-72
2023/07/01 09:21:44;;;;;;;5.60;3.20;;;;;;;30.58;35.98;99375.68;106809;1253;60447;-73
2023/07/01 09:24:12;;;;;;;4.50;3.10;;;;;;;30.53;35.17;99374.73;108963;1254;64044;-73
2023/07/01 09:26:39;;;;;;;4.60;3.50;;;;;;;30.55;36.17;99376.36;109193;1253;58907;-73
2023/07/01 09:29:10;;;;;;;3.80;3.40;;;;;;;30.66;37.11;99374.59;109253;1253;58613;-72
2023/07/01 09:31:47;;;;;;;4.10;3.70;;;;;;;30.79;37.52;99368.29;109289;1254;63941;-74
2023/07/01 09:34:14;;;;;;;3.60;3.20;;;;;;;30.92;36.90;99369.91;109293;1253;58612;-73
2023/07/01 09:36:41;;;;;;;4.00;3.60;;;;;;;30.94;36.55;99370.99;109240;1253;62729;-73
2023/07/01 09:39:08;;;;;;;7.30;3.60;;;;;;;30.91;36.99;99371.13;109258;1254;58332;-73
2023/07/01 09:41:35;;;;;;;5.00;3.30;;;;;;;31.00;37.18;99370.25;108797;1253;59664;-72
2023/07/01 09:44:14;;;;;;;6.20;3.10;;;;;;;31.16;36.34;99362.65;106164;1254;64298;-72
2023/07/01 09:46:43;;;;;;;6.20;3.10;;;;;;;31.31;36.32;99359.73;107400;1254;60379;-73
2023/07/01 09:49:10;;;;;;;4.00;3.20;;;;;;;31.52;35.89;99357.42;105991;1254;63842;-73
2023/07/01 09:51:49;;;;;;;3.50;3.20;;;;;;;31.71;35.54;99365.23;106181;1257;60328;-73
2023/07/01 09:54:27;;;;;;;3.60;2.70;;;;;;;31.67;34.75;99370.79;106169;1257;60498;-74
2023/07/01 09:56:56;;;;;;;3.30;2.80;;;;;;;31.45;33.17;99363.52;105969;1252;65512;-73
2023/07/01 09:59:23;;;;;;;2.70;2.50;;;;;;;31.32;33.08;99361.54;106307;1254;60635;-73
2023/07/01 10:01:54;;;;;;;3.50;2.50;;;;;;;31.20;32.57;99360.07;106069;1254;65327;-72
2023/07/01 10:04:25;;;;;;;4.10;2.60;;;;;;;31.09;32.26;99357.33;105961;1254;60482;-73
2023/07/01 10:06:53;;;;;;;2.60;2.40;;;;;;;31.12;32.66;99351.15;106058;1254;60936;-73
2023/07/01 10:09:23;;;;;;;3.30;2.50;;;;;;;31.27;32.23;99351.57;106301;1255;65357;-72
2023/07/01 10:11:53;;;;;;;5.10;2.90;;;;;;;31.49;32.03;99343.47;106030;1254;61141;-73
2023/07/01 10:14:24;;;;;;;4.00;3.10;;;;;;;31.53;32.96;99350.97;105872;1254;64074;-73
2023/07/01 10:16:51;;;;;;;2.90;2.70;;;;;;;31.47;34.08;99351.95;105882;1256;60463;-71
2023/07/01 10:19:27;;;;;;;2.80;2.40;;;;;;;31.44;32.87;99353.87;105870;1254;60428;-72
2023/07/01 10:22:23;;;;;;;3.10;2.10;;;;;;;31.44;31.14;99349.52;106505;1257;64079;-75
2023/07/01 10:24:57;;;;;;;4.20;2.10;;;;;;;31.61;30.21;99352.27;106034;1254;60418;-76
2023/07/01 10:27:42;;;;;;;3.10;2.20;;;;;;;31.76;29.69;99347.38;106016;1254;64549;-75
2023/07/01 10:30:12;;;;;;;2.30;2.10;;;;;;;31.95;30.04;99349.94;106061;1254;60450;-75
2023/07/01 10:32:39;;;;;;;3.40;2.40;;;;;;;32.12;29.64;99345.23;106106;1254;60424;-74
2023/07/01 10:35:05;;;;;;;3.00;2.70;;;;;;;32.22;30.22;99347.55;105916;1254;63656;-74
2023/07/01 10:37:33;;;;;;;3.30;2.40;;;;;;;32.27;31.49;99349.08;105911;1254;60451;-74
2023/07/01 10:40:07;;;;;;;4.90;2.60;;;;;;;32.40;31.76;99344.42;106064;1254;64095;-74
2023/07/01 10:42:36;;;;;;;3.20;2.10;;;;;;;32.66;30.08;99340.89;105982;1254;60562;-74
2023/07/01 10:45:12;;;;;;;3.80;2.30;;;;;;;32.94;28.77;99341.98;106002;1254;60420;-72
2023/07/01 10:47:46;;;;;;;2.40;1.80;;;;;;;33.24;28.02;99337.51;105899;1254;65225;-73
2023/07/01 10:50:22;;;;;;;4.90;2.00;;;;;;;33.43;27.16;99341.90;105843;1254;60526;-79
2023/07/01 10:52:55;;;;;;;3.40;1.90;;;;;;;33.51;27.44;99342.92;106166;1254;63902;-75
2023/07/01 10:55:44;;;;;;;2.60;1.90;;;;;;;33.57;27.35;99341.40;106067;1255;60430;-75
2023/07/01 10:58:23;;;;;;;5.40;1.90;;;;;;;33.54;27.11;99335.71;106006;1257;60440;-75
2023/07/01 11:00:54;;;;;;;2.50;2.10;;;;;;;33.49;27.14;99331.89;105978;1257;63993;-74
2023/07/01 11:03:37;;;;;;;2.50;2.10;;;;;;;33.56;27.60;99330.96;105971;1259;60428;-75
2023/07/01 11:06:04;;;;;;;;;;;;;;;33.62;27.28;99333.34;105854;1254;63837;-75
2023/07/01 11:08:47;;;;;;;3.30;1.90;;;;;;;33.48;26.83;99335.03;106324;1253;60379;-76
2023/07/01 11:11:27;;;;;;;2.50;2.00;;;;;;;33.25;27.13;99337.17;106093;1254;60421;-76
2023/07/01 11:13:58;;;;;;;3.90;1.90;;;;;;;33.04;27.15;99341.73;105825;1252;65015;-75
2023/07/01 11:16:25;;;;;;;3.10;1.90;;;;;;;32.98;27.15;99339.94;105915;1257;60450;-75
2023/07/01 11:18:53;;;;;;;2.80;1.80;;;;;;;33.02;27.08;99341.45;105973;1253;63983;-75
2023/07/01 11:21:22;;;;;;;4.50;2.10;;;;;;;33.15;27.40;99327.14;105876;1257;60425;-76
2023/07/01 11:24:16;;;;;;;2.80;1.90;;;;;;;33.42;27.34;99340.05;105867;1254;60432;-75
2023/07/01 11:26:44;;;;;;;2.40;1.70;;;;;;;33.64;27.34;99342.23;105972;1253;65241;-76
2023/07/01 11:29:17;;;;;;;3.40;1.80;;;;;;;33.70;26.87;99334.18;105912;1254;60337;-80
2023/07/01 11:31:44;;;;;;;2.70;1.80;;;;;;;33.73;26.02;99336.22;106214;1254;64093;-77
2023/07/01 11:34:14;;;;;;;6.20;1.90;;;;;;;33.82;25.74;99336.06;107337;1254;60219;-74
2023/07/01 11:36:45;;;;;;;3.20;1.60;;;;;;;34.00;25.79;99329.80;106166;1254;60483;-75
2023/07/01 11:39:16;;;;;;;2.70;1.90;;;;;;;34.29;25.61;99331.46;105904;1252;65205;-76
2023/07/01 11:41:51;;;;;;;3.50;1.60;;;;;;;34.53;26.25;99329.75;105777;1256;60545;-77
2023/07/01 11:44:20;;;;;;;2.80;2.10;;;;;;;34.69;25.93;99326.17;105833;1254;62697;-76
2023/07/01 11:46:47;;;;;;;2.60;2.00;;;;;;;34.72;25.83;99327.52;105724;1257;60518;-75
2023/07/01 11:49:24;;;;;;;2.90;1.80;;;;;;;34.64;25.75;99332.54;105694;1254;60440;-76
2023/07/01 11:51:52;;;;;;;2.40;1.90;;;;;;;34.56;26.10;99335.40;105597;1259;65138;-75
2023/07/01 11:54:20;;;;;;;2.40;2.10;;;;;;;34.63;26.18;99325.48;105791;1254;60533;-75
2023/07/01 11:56:47;;;;;;;2.20;1.80;;;;;;;34.77;26.10;99324.90;105820;1254;63762;-76
2023/07/01 11:59:35;;;;;;;5.20;2.00;;;;;;;34.95;26.05;99325.80;106594;1253;60425;-75
2023/07/01 12:02:01;;;;;;;3.00;1.90;;;;;;;35.12;25.74;99325.36;107140;1253;60327;-76
2023/07/01 12:04:29;;;;;;;2.90;1.90;;;;;;;35.15;25.48;99319.71;106132;1256;65011;-75
2023/07/01 12:07:09;;;;;;;1.80;1.70;;;;;;;35.15;25.85;99314.77;106004;1254;60543;-76
2023/07/01 12:09:41;;;;;;;2.40;1.70;;;;;;;35.25;26.16;99306.63;106091;1254;65318;-75
2023/07/01 12:12:09;;;;;;;2.20;1.80;;;;;;;35.49;26.17;99306.08;106212;1254;60459;-75
2023/07/01 12:14:38;;;;;;;5.40;1.90;;;;;;;35.79;25.45;99301.13;105976;1254;60447;-75
2023/07/01 12:17:05;;;;;;;3.00;1.90;;;;;;;35.89;24.57;99304.65;106053;1254;63696;-77
2023/07/01 12:19:32;;;;;;;2.40;1.50;;;;;;;35.66;24.46;99307.79;105800;1254;60600;-76
2023/07/01 12:21:59;;;;;;;3.30;1.80;;;;;;;35.29;24.92;99309.27;105829;1254;63967;-77
2023/07/01 12:24:28;;;;;;;5.60;2.10;;;;;;;34.77;25.02;99307.67;105808;1254;60360;-75
2023/07/01 12:26:59;;;;;;;4.00;2.30;;;;;;;34.41;25.88;99309.70;105833;1253;60392;-75
2023/07/01 12:29:26;;;;;;;4.40;1.80;;;;;;;34.39;26.47;99304.30;105909;1256;65110;-74
2023/07/01 12:31:53;;;;;;;3.90;1.80;;;;;;;34.50;26.14;99301.13;105831;1254;60447;-75
2023/07/01 12:34:20;;;;;;;2.80;1.80;;;;;;;34.53;26.01;99299.80;105968;1252;63869;-74
2023/07/01 12:36:47;;;;;;;3.90;1.60;;;;;;;34.54;25.81;99302.03;105802;1253;60427;-74
2023/07/01 12:39:17;;;;;;;3.20;1.70;;;;;;;34.46;25.26;99300.92;105690;1253;60434;-75
2023/07/01 12:41:47;;;;;;;3.90;1.60;;;;;;;34.30;25.23;99297.29;105902;1254;66580;-74
2023/07/01 12:44:14;;;;;;;2.20;1.70;;;;;;;34.07;25.80;99299.27;105759;1256;60472;-75
2023/07/01 12:46:44;;;;;;;1.90;1.50;;;;;;;33.97;26.54;99296.82;106076;1256;63853;-74
2023/07/01 12:49:11;;;;;;;3.00;1.60;;;;;;;34.11;26.96;99295.25;106070;1257;60537;-73
2023/07/01 12:51:38;;;;;;;2.20;1.80;;;;;;;34.35;26.34;99292.98;105934;1254;60518;-73
2023/07/01 12:54:05;;;;;;;2.70;1.80;;;;;;;34.48;25.85;99291.52;105699;1257;65194;-73
2023/07/01 12:56:44;;;;;;;2.10;1.60;;;;;;;34.40;25.64;99295.77;105810;1254;60457;-72
2023/07/01 12:59:11;;;;;;;2.40;1.80;;;;;;;34.19;25.68;99297.77;105764;1254;63899;-72
2023/07/01 13:01:38;;;;;;;2.80;2.10;;;;;;;33.92;25.91;99299.64;105928;1256;60427;-72
2023/07/01 13:04:06;;;;;;;3.00;2.00;;;;;;;33.70;26.66;99294.86;105806;1254;60469;-75
2023/07/01 13:06:33;;;;;;;4.80;1.60;;;;;;;33.55;27.26;99291.83;105977;1252;65063;-74
2023/07/01 13:09:02;;;;;;;3.00;1.80;;;;;;;33.47;27.39;99290.15;108212;1253;60329;-73
2023/07/01 13:11:36;;;;;;;2.00;1.70;;;;;;;33.35;27.20;99288.09;109084;1253;63895;-73
2023/07/01 13:14:08;;;;;;;3.40;2.00;;;;;;;33.19;26.92;99284.79;109173;1253;58302;-74
2023/07/01 13:16:35;;;;;;;3.70;1.80;;;;;;;33.10;27.48;99275.61;109359;1253;58422;-73
2023/07/01 13:19:05;;;;;;;2.40;1.70;;;;;;;33.25;27.57;99274.84;109377;1253;63906;-74
2023/07/01 13:21:51;;;;;;;3.30;1.90;;;;;;;33.47;26.57;99284.83;109078;1254;61236;-74
2023/07/01 13:24:18;;;;;;;3.00;1.70;;;;;;;33.67;26.37;99284.45;109318;1253;63922;-73
2023/07/01 13:26:45;;;;;;;4.40;2.00;;;;;;;33.90;26.24;99275.64;109189;1253;58331;-74
2023/07/01 13:29:17;;;;;;;2.80;1.70;;;;;;;34.18;26.36;99270.10;109113;1254;58283;-73
2023/07/01 13:31:45;;;;;;;3.70;1.60;;;;;;;34.45;26.18;99274.67;109006;1253;65054;-72
2023/07/01 13:34:12;;;;;;;3.20;2.50;;;;;;;34.65;25.51;99277.31;109253;1253;58274;-73
2023/07/01 13:36:39;;;;;;;9.50;5.50;;;;;;;34.84;25.34;99269.63;109127;1254;63934;-73
2023/07/01 13:39:15;;;;;;;9.30;6.90;;;;;;;34.97;25.00;99265.55;109079;1254;58501;-74
2023/07/01 13:41:43;;;;;;;9.00;8.10;;;;;;;34.98;25.36;99265.59;108552;1254;60662;-74
2023/07/01 13:44:19;;;;;;;4.20;3.30;;;;;;;35.01;25.99;99263.27;106072;1254;72776;-71
2023/07/01 13:46:47;;;;;;;4.00;3.60;;;;;;;35.05;25.83;99263.67;106174;1254;60348;-73
2023/07/01 13:49:19;;;;;;;3.80;2.60;;;;;;;34.99;25.97;99262.95;106464;1254;66827;-71
2023/07/01 13:51:46;;;;;;;5.20;4.40;;;;;;;34.80;25.76;99267.69;106883;1253;61191;-73
2023/07/01 13:54:13;;;;;;;3.80;3.10;;;;;;;34.53;26.64;99264.48;106672;1254;60649;-73
2023/07/01 13:56:40;;;;;;;2.50;2.10;;;;;;;34.48;27.31;99260.11;106168;1259;65225;-73
2023/07/01 13:59:06;;;;;;;3.00;2.10;;;;;;;34.45;27.04;99262.23;106558;1254;60411;-73
2023/07/01 14:01:37;;;;;;;3.10;1.90;;;;;;;34.31;26.62;99261.90;106650;1254;63924;-73
2023/07/01 14:04:04;;;;;;;2.60;2.00;;;;;;;34.11;26.70;99265.84;106682;1259;60520;-73
2023/07/01 14:06:31;;;;;;;2.70;1.80;;;;;;;34.01;26.87;99259.16;106746;1253;60518;-74
2023/07/01 14:08:58;;;;;;;2.80;1.80;;;;;;;34.11;26.91;99258.79;106734;1259;65195;-74
2023/07/01 14:11:26;;;;;;;3.00;2.00;;;;;;;34.32;26.97;99253.48;106786;1253;60437;-74
2023/07/01 14:13:55;;;;;;;2.50;1.90;;;;;;;34.51;26.19;99255.48;106583;1256;63898;-74
2023/07/01 14:16:23;;;;;;;3.40;1.90;;;;;;;34.54;25.78;99248.38;106376;1252;60457;-73
2023/07/01 14:18:50;;;;;;;1.90;1.70;;;;;;;34.66;26.22;99243.48;106600;1252;60450;-74
2023/07/01 14:21:18;;;;;;;2.40;1.80;;;;;;;34.90;25.99;99241.59;106652;1254;65268;-73
2023/07/01 14:23:46;;;;;;;3.80;1.90;;;;;;;35.03;25.54;99246.00;106860;1254;60609;-73
2023/07/01 14:26:25;;;;;;;3.20;2.00;;;;;;;35.16;25.47;99245.19;106740;1254;64465;-74
2023/07/01 14:28:55;;;;;;;1.90;1.70;;;;;;;35.40;25.42;99246.38;106639;1253;60553;-73
2023/07/01 14:31:31;;;;;;;3.00;1.70;;;;;;;35.67;25.32;99247.48;106636;1253;60433;-74
2023/07/01 14:34:00;;;;;;;4.90;2.00;;;;;;;35.87;24.71;99246.63;106508;1256;64017;-73
2023/07/01 14:36:45;;;;;;;4.50;1.90;;;;;;;36.01;24.23;99244.11;106492;1254;60562;-73
2023/07/01 14:39:19;;;;;;;3.40;1.80;;;;;;;35.93;24.18;99242.88;106444;1254;63431;-73
2023/07/01 14:41:45;;;;;;;3.20;1.80;;;;;;;35.75;24.17;99244.55;106521;1253;60514;-73
2023/07/01 14:44:16;;;;;;;2.70;1.90;;;;;;;35.53;24.58;99240.49;106605;1253;60526;-74
2023/07/01 14:46:43;;;;;;;2.20;1.90;;;;;;;35.46;24.78;99236.28;106435;1254;63794;-74
2023/07/01 14:49:10;;;;;;;3.60;2.20;;;;;;;35.48;24.50;99236.99;106602;1253;60351;-75
2023/07/01 14:51:37;;;;;;;2.90;2.20;;;;;;;35.42;24.47;99236.05;106893;1254;62819;-75
2023/07/01 14:54:04;;;;;;;5.40;2.10;;;;;;;35.23;24.59;99239.08;106732;1256;60530;-72
2023/07/01 14:56:31;;;;;;;2.60;2.20;;;;;;;34.97;25.05;99232.86;106469;1253;60475;-74
2023/07/01 14:58:58;;;;;;;2.70;2.30;;;;;;;34.78;24.93;99231.35;106771;1256;65812;-75
2023/07/01 15:01:28;;;;;;;3.20;2.20;;;;;;;34.58;25.14;99230.20;106697;1253;60577;-75
2023/07/01 15:03:54;;;;;;;2.50;2.20;;;;;;;34.38;25.48;99235.55;106368;1252;64182;-73
2023/07/01 15:06:21;;;;;;;5.70;2.20;;;;;;;34.23;25.56;99237.38;106782;1254;60437;-75
2023/07/01 15:08:48;;;;;;;2.10;1.80;;;;;;;34.01;25.87;99241.29;106773;1254;60348;-75
2023/07/01 15:11:15;;;;;;;3.10;2.20;;;;;;;33.77;26.23;99244.02;106807;1254;63980;-75
2023/07/01 15:13:42;;;;;;;3.00;2.00;;;;;;;33.58;26.64;99243.54;107020;1254;60402;-76
2023/07/01 15:16:09;;;;;;;2.80;1.90;;;;;;;33.41;26.72;99244.92;107758;1256;65769;-73
2023/07/01 15:18:36;;;;;;;3.40;2.20;;;;;;;33.23;26.79;99246.50;108133;1252;60415;-74
2023/07/01 15:21:03;;;;;;;4.00;2.40;;;;;;;33.08;27.07;99244.82;106190;1257;60389;-74
2023/07/01 15:23:30;;;;;;;3.40;2.20;;;;;;;32.96;27.20;99250.75;106047;1254;65619;-74
2023/07/01 15:25:57;;;;;;;2.80;1.90;;;;;;;32.78;27.29;99249.02;106052;1253;60429;-77
2023/07/01 15:28:24;;;;;;;3.00;1.70;;;;;;;32.62;27.81;99246.35;106146;1254;62818;-77
2023/07/01 15:30:51;;;;;;;2.00;1.80;;;;;;;32.52;27.94;99251.47;106157;1254;60773;-76
2023/07/01 15:33:17;;;;;;;4.90;2.30;;;;;;;32.46;28.26;99253.40;105743;1254;61039;-75
2023/07/01 15:35:48;;;;;;;4.00;2.10;;;;;;;32.43;28.04;99247.74;105917;1254;65228;-73
2023/07/01 15:38:15;;;;;;;4.10;1.90;;;;;;;32.43;27.96;99244.86;105867;1254;60517;-75
2023/07/01 15:40:42;;;;;;;2.00;1.70;;;;;;;32.46;28.11;99248.08;105936;1253;63917;-75
2023/07/01 15:43:09;;;;;;;3.70;2.20;;;;;;;32.46;27.95;99250.89;105806;1253;60950;-73
2023/07/01 15:45:36;;;;;;;3.50;1.80;;;;;;;32.35;28.14;99246.21;105970;1252;60440;-76
2023/07/01 15:48:04;;;;;;;4.00;1.90;;;;;;;32.22;28.45;99247.32;106042;1256;65058;-75
2023/07/01 15:50:31;;;;;;;4.80;2.30;;;;;;;32.11;28.63;99244.34;105983;1254;60400;-76
2023/07/01 15:52:58;;;;;;;2.70;2.40;;;;;;;31.97;28.93;99246.20;105992;1256;62575;-73
2023/07/01 15:55:26;;;;;;;3.80;2.10;;;;;;;31.83;29.31;99252.83;106081;1254;60358;-74
2023/07/01 15:57:53;;;;;;;4.80;2.10;;;;;;;31.71;29.52;99252.72;105985;1252;60427;-76
2023/07/01 16:00:20;;;;;;;4.20;2.40;;;;;;;31.58;29.80;99258.34;106015;1252;65440;-75
2023/07/01 16:02:47;;;;;;;2.90;2.00;;;;;;;31.42;29.93;99256.68;105873;1254;60505;-77
2023/07/01 16:05:23;;;;;;;2.10;1.70;;;;;;;31.24;30.29;99259.55;105836;1254;64100;-77
2023/07/01 16:08:08;;;;;;;2.40;1.90;;;;;;;31.12;30.74;99263.50;106289;1254;60450;-74
2023/07/01 16:10:35;;;;;;;2.90;2.00;;;;;;;31.01;31.00;99265.10;105976;1254;60431;-75
2023/07/01 16:13:07;;;;;;;4.70;2.00;;;;;;;30.96;31.16;99263.75;106110;1253;65661;-76
2023/07/01 16:16:04;;;;;;;5.10;1.90;;;;;;;30.94;31.52;99267.27;106066;1254;60491;-76
2023/07/01 16:18:48;;;;;;;6.40;2.00;;;;;;;30.90;31.60;99266.75;106006;1254;63854;-76
2023/07/01 16:21:16;;;;;;;2.30;1.90;;;;;;;30.90;31.70;99267.41;105987;1253;60498;-73
2023/07/01 16:23:51;;;;;;;2.70;2.40;;;;;;;30.90;31.58;99269.70;105949;1259;60590;-74
2023/07/01 16:26:28;;;;;;;2.90;2.00;;;;;;;30.84;31.52;99266.67;106016;1254;66128;-76
2023/07/01 16:28:55;;;;;;;4.30;2.10;;;;;;;30.77;31.42;99267.36;106017;1255;60537;-73
2023/07/01 16:31:23;;;;;;;5.60;2.00;;;;;;;30.69;31.52;99268.88;106076;1254;64054;-76
2023/07/01 16:33:51;;;;;;;4.70;2.70;;;;;;;30.62;31.87;99269.23;106111;1254;60468;-76
2023/07/01 16:36:19;;;;;;;3.80;2.50;;;;;;;30.53;31.99;99266.86;106148;1258;60396;-75
2023/07/01 16:38:48;;;;;;;3.20;2.40;;;;;;;30.42;32.36;99266.36;105760;1257;65177;-76
2023/07/01 16:41:16;;;;;;;3.20;2.10;;;;;;;30.30;32.51;99270.98;106062;1253;60500;-75
2023/07/01 16:43:45;;;;;;;3.30;2.30;;;;;;;30.19;32.75;99270.52;105995;1254;62477;-75
2023/07/01 16:46:11;;;;;;;2.90;2.20;;;;;;;30.10;32.89;99272.56;105949;1257;60536;-75
2023/07/01 16:48:48;;;;;;;6.10;2.30;;;;;;;30.02;33.06;99271.21;105773;1254;60507;-75
2023/07/01 16:51:15;;;;;;;3.60;2.10;;;;;;;29.95;33.35;99272.64;105721;1256;65021;-76
2023/07/01 16:53:43;;;;;;;5.60;2.50;;;;;;;29.88;33.43;99274.23;105932;1253;60636;-76
2023/07/01 16:56:14;;;;;;;4.90;2.30;;;;;;;29.79;33.77;99278.55;105855;1254;62450;-76
2023/07/01 16:58:48;;;;;;;2.60;2.30;;;;;;;29.69;33.99;99276.11;105598;1258;60431;-76
2023/07/01 17:01:33;;;;;;;4.70;2.40;;;;;;;29.64;34.09;99271.66;105842;1252;60293;-76
2023/07/01 17:04:00;;;;;;;6.30;2.60;;;;;;;29.59;34.38;99273.77;105814;1254;65312;-76
2023/07/01 17:06:34;;;;;;;5.60;2.60;;;;;;;29.56;34.61;99272.91;105807;1254;61042;-76
2023/07/01 17:09:01;;;;;;;3.20;2.50;;;;;;;29.51;34.88;99271.77;105791;1254;64186;-76
2023/07/01 17:11:57;;;;;;;5.30;2.80;;;;;;;29.46;35.13;99272.88;105724;1256;60457;-75
2023/07/01 17:14:45;;;;;;;4.00;2.90;;;;;;;29.37;35.23;99271.04;106041;1254;60611;-76
2023/07/01 17:17:25;;;;;;;4.80;3.00;;;;;;;29.27;35.43;99269.45;105736;1253;63754;-75
2023/07/01 17:19:52;;;;;;;6.10;3.20;;;;;;;29.22;35.84;99269.87;105805;1256;60446;-75
2023/07/01 17:22:20;;;;;;;5.40;3.40;;;;;;;29.21;35.89;99269.39;105935;1253;64115;-75
2023/07/01 17:24:49;;;;;;;5.90;3.50;;;;;;;29.17;35.88;99269.17;105944;1253;60522;-76
2023/07/01 17:27:16;;;;;;;3.90;3.50;;;;;;;29.11;36.14;99269.65;106008;1256;60428;-75
2023/07/01 17:29:45;;;;;;;3.10;2.80;;;;;;;29.07;36.40;99270.14;106002;1254;65203;-76
2023/07/01 17:32:12;;;;;;;3.40;3.00;;;;;;;29.03;36.47;99273.17;106000;1254;60460;-75
2023/07/01 17:35:10;;;;;;;4.80;3.30;;;;;;;28.97;36.66;99276.26;105814;1253;64047;-76
2023/07/01 17:37:37;;;;;;;7.80;4.50;;;;;;;28.91;37.00;99272.22;105676;1254;60357;-76
2023/07/01 17:40:04;;;;;;;7.80;6.10;;;;;;;28.88;37.00;99267.75;105813;1254;60511;-76
2023/07/01 17:42:31;;;;;;;7.40;6.50;;;;;;;28.87;36.90;99271.65;105722;1258;65016;-77
2023/07/01 17:44:58;;;;;;;7.60;4.90;;;;;;;28.84;37.38;99270.91;106012;1254;60223;-77
2023/07/01 17:47:24;;;;;;;6.30;4.20;;;;;;;28.80;37.36;99271.08;105785;1254;64073;-76